Time;durP1;ratioP1;P1;durP2;ratioP2;P2;SDS_P1;SDS_P2;PMS_P1;PMS_P2;Temp;Humidity;BMP_temperature;BMP_pressure;BME280_temperature;BME280_humidity;BME280_pressure;Samples;Min_cycle;Max_cycle;Signal;HPM_P1;HPM_P2
2022/12/07 00:01:11;;;;;;;68.57;51.33;;;13.30;64.00;;;;;;5046153;27;87829;-53
2022/12/07 00:03:38;;;;;;;69.35;52.08;;;13.30;63.90;;;;;;5037547;27;85645;-53
2022/12/07 00:06:06;;;;;;;69.75;52.58;;;13.30;63.80;;;;;;5051365;27;85568;-52
2022/12/07 00:08:32;;;;;;;68.82;51.80;;;13.30;63.80;;;;;;5047665;27;87105;-51
2022/12/07 00:11:02;;;;;;;67.93;51.55;;;13.20;63.70;;;;;;5047223;27;86840;-53
2022/12/07 00:13:29;;;;;;;67.97;51.88;;;13.20;63.90;;;;;;5044818;27;85514;-52
2022/12/07 00:15:55;;;;;;;67.50;51.35;;;13.20;63.70;;;;;;5047973;27;87075;-50
2022/12/07 00:18:20;;;;;;;69.35;52.13;;;13.20;63.90;;;;;;5043954;27;87783;-54
2022/12/07 00:20:46;;;;;;;69.95;52.00;;;13.20;63.90;;;;;;5043382;27;87486;-53
2022/12/07 00:23:12;;;;;;;67.75;51.88;;;13.20;63.90;;;;;;5039746;27;85695;-54
2022/12/07 00:25:37;;;;;;;68.03;51.55;;;13.20;63.70;;;;;;5045307;27;86688;-54
2022/12/07 00:28:03;;;;;;;68.18;51.13;;;13.20;63.70;;;;;;5036171;27;89333;-52
2022/12/07 00:30:29;;;;;;;67.78;51.15;;;13.20;63.70;;;;;;5033547;27;87559;-54
2022/12/07 00:32:55;;;;;;;67.53;51.33;;;13.20;63.70;;;;;;5051342;27;85657;-53
2022/12/07 00:35:20;;;;;;;69.10;51.90;;;13.20;64.20;;;;;;5048255;27;85574;-53
2022/12/07 00:37:46;;;;;;;67.80;51.28;;;13.20;64.00;;;;;;5042332;27;89008;-53
2022/12/07 00:40:12;;;;;;;67.72;51.35;;;13.10;63.80;;;;;;5035571;27;88567;-52
2022/12/07 00:42:38;;;;;;;67.90;51.65;;;13.20;64.00;;;;;;5048338;27;85966;-54
2022/12/07 00:45:04;;;;;;;68.88;51.92;;;13.20;63.80;;;;;;5048541;27;87155;-52
2022/12/07 00:47:29;;;;;;;67.25;51.10;;;13.20;63.70;;;;;;5039878;27;85375;-55
2022/12/07 00:49:55;;;;;;;66.55;50.95;;;13.20;63.70;;;;;;5044244;27;85728;-53
2022/12/07 00:52:21;;;;;;;69.43;51.95;;;13.10;63.70;;;;;;5043576;27;91443;-55
2022/12/07 00:54:46;;;;;;;68.50;51.15;;;13.10;63.70;;;;;;5033889;27;86480;-54
2022/12/07 00:57:12;;;;;;;68.97;51.50;;;13.20;63.70;;;;;;5040806;27;86575;-55
2022/12/07 00:59:37;;;;;;;68.20;51.05;;;13.10;63.70;;;;;;5039061;27;85670;-52
2022/12/07 01:02:03;;;;;;;66.88;51.45;;;13.10;63.70;;;;;;5039059;27;89364;-55
2022/12/07 01:04:29;;;;;;;67.72;51.38;;;13.10;63.80;;;;;;5043730;27;87351;-53
2022/12/07 01:06:55;;;;;;;68.63;51.22;;;13.10;63.90;;;;;;5038526;27;85493;-53
2022/12/07 01:09:20;;;;;;;66.95;51.15;;;13.10;63.80;;;;;;5052313;27;86313;-55
2022/12/07 01:11:46;;;;;;;68.30;51.08;;;13.10;63.70;;;;;;5041499;27;87172;-55
2022/12/07 01:14:11;;;;;;;66.70;51.38;;;13.10;63.70;;;;;;5032578;27;88944;-52
2022/12/07 01:16:39;;;;;;;67.70;51.38;;;13.10;63.70;;;;;;5042180;27;87337;-50
2022/12/07 01:19:04;;;;;;;69.35;51.80;;;13.10;63.70;;;;;;5033630;27;86535;-53
2022/12/07 01:21:37;;;;;;;67.13;51.13;;;13.10;63.70;;;;;;5015263;27;85626;-52
2022/12/07 01:24:05;;;;;;;67.47;51.25;;;13.10;63.70;;;;;;5037082;27;86969;-53
2022/12/07 01:26:31;;;;;;;68.32;51.42;;;13.10;63.70;;;;;;5038472;27;85920;-55
2022/12/07 01:28:58;;;;;;;68.47;52.03;;;13.10;63.80;;;;;;5052137;27;85453;-53
2022/12/07 01:31:26;;;;;;;67.82;51.63;;;13.10;64.00;;;;;;5052084;27;86174;-54
2022/12/07 01:33:53;;;;;;;67.57;52.08;;;13.00;63.70;;;;;;5042919;27;86869;-52
2022/12/07 01:36:34;;;;;;;66.43;50.90;;;13.10;63.80;;;;;;5037868;27;89219;-55
2022/12/07 01:39:06;;;;;;;67.70;50.97;;;13.10;63.70;;;;;;5040513;27;86609;-54
2022/12/07 01:41:33;;;;;;;;;;;13.00;63.70;;;;;;5043843;27;85630;-54
2022/12/07 01:44:31;;;;;;;67.45;51.45;;;13.00;63.90;;;;;;5047381;27;87682;-55
2022/12/07 01:47:02;;;;;;;65.60;51.40;;;13.00;63.90;;;;;;5042458;27;88877;-56
2022/12/07 01:49:38;;;;;;;66.35;50.40;;;13.00;63.90;;;;;;5038235;27;90655;-54
2022/12/07 01:52:15;;;;;;;67.78;51.08;;;13.00;63.90;;;;;;5038970;27;86467;-54
2022/12/07 01:54:42;;;;;;;69.65;51.13;;;13.00;64.00;;;;;;5036550;27;86873;-54
2022/12/07 01:57:09;;;;;;;66.57;50.92;;;13.00;63.90;;;;;;5037797;27;88823;-53
2022/12/07 01:59:35;;;;;;;65.75;50.85;;;13.00;63.90;;;;;;5043377;27;85908;-52
2022/12/07 02:02:05;;;;;;;67.32;50.47;;;13.00;63.90;;;;;;5034607;27;91524;-53
2022/12/07 02:04:31;;;;;;;67.13;51.33;;;13.00;63.80;;;;;;5046683;27;85792;-53
2022/12/07 02:06:57;;;;;;;65.95;51.03;;;13.00;63.70;;;;;;5039219;27;86468;-52
2022/12/07 02:09:23;;;;;;;65.95;50.60;;;13.00;63.60;;;;;;5035377;27;87107;-54
2022/12/07 02:11:50;;;;;;;67.53;50.85;;;13.00;63.80;;;;;;5042719;27;88630;-54
2022/12/07 02:14:15;;;;;;;67.03;51.25;;;13.00;63.90;;;;;;5036941;27;87480;-55
2022/12/07 02:17:09;;;;;;;65.93;50.72;;;12.90;63.90;;;;;;5042908;27;86678;-53
2022/12/07 02:20:22;;;;;;;65.35;50.78;;;12.90;63.90;;;;;;5039551;27;86977;-55
2022/12/07 02:23:25;;;;;;;68.13;51.30;;;12.90;64.60;;;;;;5022193;27;85547;-54
2022/12/07 02:26:12;;;;;;;66.53;50.22;;;12.90;63.90;;;;;;5050689;27;86302;-55
2022/12/07 02:28:54;;;;;;;65.55;50.28;;;12.90;64.00;;;;;;5044721;27;86330;-54
2022/12/07 02:31:23;;;;;;;66.80;50.58;;;12.90;64.10;;;;;;5037920;27;86636;-53
2022/12/07 02:34:17;;;;;;;67.20;51.03;;;12.90;63.90;;;;;;5046392;27;86255;-52
2022/12/07 02:36:49;;;;;;;67.90;51.10;;;12.90;63.90;;;;;;5038356;27;88529;-54
2022/12/07 02:39:22;;;;;;;65.47;50.70;;;12.90;63.90;;;;;;5032492;27;88562;-54
2022/12/07 02:41:52;;;;;;;67.25;51.00;;;12.90;63.90;;;;;;5036924;27;87752;-56
2022/12/07 02:44:21;;;;;;;66.47;50.38;;;12.90;64.00;;;;;;5022973;27;87401;-55
2022/12/07 02:46:54;;;;;;;66.38;50.85;;;12.90;63.90;;;;;;5038640;27;85657;-54
2022/12/07 02:49:23;;;;;;;66.45;50.72;;;12.90;64.00;;;;;;5042350;27;86789;-54
2022/12/07 02:51:49;;;;;;;67.70;50.53;;;12.90;63.90;;;;;;5041316;27;85361;-55
2022/12/07 02:54:18;;;;;;;66.20;50.30;;;13.00;63.90;;;;;;5033947;27;89779;-55
2022/12/07 02:56:47;;;;;;;67.20;51.00;;;12.90;63.80;;;;;;5031581;27;85667;-55
2022/12/07 02:59:41;;;;;;;65.72;50.65;;;12.90;64.00;;;;;;5041429;27;86064;-55
2022/12/07 03:02:18;;;;;;;68.55;51.30;;;12.90;64.00;;;;;;5042473;27;90962;-53
2022/12/07 03:04:52;;;;;;;66.10;50.53;;;12.90;64.00;;;;;;5051506;27;88002;-53
2022/12/07 03:07:30;;;;;;;65.03;50.08;;;12.90;64.10;;;;;;5050822;27;87359;-54
2022/12/07 03:10:21;;;;;;;66.80;50.55;;;12.80;64.20;;;;;;5037120;27;86132;-51
2022/12/07 03:12:54;;;;;;;63.97;50.33;;;12.80;64.30;;;;;;5044844;27;89004;-54
2022/12/07 03:15:33;;;;;;;65.43;50.05;;;12.80;64.30;;;;;;5042307;27;86089;-55
2022/12/07 03:18:00;;;;;;;64.57;50.05;;;12.80;64.10;;;;;;5032732;27;85645;-52
2022/12/07 03:20:28;;;;;;;65.38;50.42;;;12.90;64.20;;;;;;5052005;27;86653;-52
2022/12/07 03:22:54;;;;;;;65.45;50.00;;;12.80;64.20;;;;;;5054144;27;86305;-53
2022/12/07 03:25:21;;;;;;;65.07;50.03;;;12.80;64.30;;;;;;5041185;27;87083;-52
2022/12/07 03:27:57;;;;;;;65.38;50.22;;;12.80;64.20;;;;;;5041836;27;87365;-56
2022/12/07 03:30:54;;;;;;;65.53;50.17;;;12.80;64.20;;;;;;5038234;27;85864;-53
2022/12/07 03:33:22;;;;;;;65.65;50.42;;;12.80;64.20;;;;;;5024176;27;87779;-52
2022/12/07 03:36:21;;;;;;;66.25;50.10;;;12.80;64.20;;;;;;5045130;27;88541;-53
2022/12/07 03:38:52;;;;;;;65.43;50.65;;;12.80;64.30;;;;;;5041451;27;86022;-51
2022/12/07 03:41:21;;;;;;;;;;;12.70;64.20;;;;;;5036485;27;87643;-54
2022/12/07 03:43:47;;;;;;;65.75;50.10;;;12.70;64.30;;;;;;5047904;27;88386;-53
2022/12/07 03:46:34;;;;;;;64.90;50.53;;;12.70;64.30;;;;;;5041886;27;86446;-54
2022/12/07 03:49:25;;;;;;;65.20;50.30;;;12.70;64.30;;;;;;5045160;27;85568;-53
2022/12/07 03:52:20;;;;;;;65.93;49.85;;;12.70;64.40;;;;;;5039352;27;87892;-53
2022/12/07 03:54:58;;;;;;;64.50;50.05;;;12.70;64.60;;;;;;5022846;27;88521;-51
2022/12/07 03:57:26;;;;;;;65.43;50.47;;;12.70;64.50;;;;;;5046320;27;86091;-53
2022/12/07 03:59:54;;;;;;;64.75;50.17;;;12.70;64.40;;;;;;5043115;27;86430;-54
2022/12/07 04:02:21;;;;;;;67.00;50.75;;;12.70;64.30;;;;;;5044554;27;86449;-54
2022/12/07 04:04:47;;;;;;;66.82;50.40;;;12.70;64.30;;;;;;5038621;27;87035;-54
2022/12/07 04:07:13;;;;;;;64.05;49.42;;;12.70;64.40;;;;;;5039673;27;87984;-53
2022/12/07 04:09:38;;;;;;;66.10;50.33;;;12.70;64.40;;;;;;5044881;27;85926;-54
2022/12/07 04:12:04;;;;;;;65.28;50.42;;;12.70;64.40;;;;;;5037901;27;90217;-53
2022/12/07 04:14:30;;;;;;;64.60;50.35;;;12.70;64.40;;;;;;5044423;27;85687;-54
2022/12/07 04:16:57;;;;;;;67.13;50.25;;;12.70;64.40;;;;;;5044499;27;86821;-51
2022/12/07 04:19:28;;;;;;;66.05;50.10;;;12.70;64.40;;;;;;5050746;27;92599;-54
2022/12/07 04:21:55;;;;;;;65.80;49.45;;;12.70;64.30;;;;;;5044850;27;87833;-55
2022/12/07 04:24:21;;;;;;;65.13;49.88;;;12.70;64.30;;;;;;5046863;27;87062;-51
2022/12/07 04:26:47;;;;;;;66.25;50.03;;;12.70;64.30;;;;;;5040607;27;85862;-53
2022/12/07 04:29:14;;;;;;;65.55;49.85;;;12.70;64.10;;;;;;5052554;27;85848;-50
2022/12/07 04:31:40;;;;;;;64.15;49.80;;;12.70;64.20;;;;;;5046024;27;88481;-52
2022/12/07 04:34:06;;;;;;;64.05;49.40;;;12.70;64.30;;;;;;5037211;27;87627;-52
2022/12/07 04:36:33;;;;;;;65.18;49.75;;;12.70;64.50;;;;;;5046453;27;87034;-51
2022/12/07 04:38:59;;;;;;;65.90;50.13;;;12.70;64.50;;;;;;5047387;27;86085;-55
2022/12/07 04:41:28;;;;;;;64.80;50.10;;;12.70;64.20;;;;;;5040102;27;87404;-54
2022/12/07 04:43:55;;;;;;;64.72;50.05;;;12.70;64.40;;;;;;5048323;27;87879;-55
2022/12/07 04:46:21;;;;;;;66.50;50.17;;;12.70;64.50;;;;;;5052196;27;85586;-54
2022/12/07 04:48:47;;;;;;;65.60;49.92;;;12.70;64.30;;;;;;5043776;27;85660;-55
2022/12/07 04:51:14;;;;;;;66.07;50.50;;;12.70;64.40;;;;;;5039883;27;86576;-55
2022/12/07 04:53:39;;;;;;;65.68;50.95;;;12.70;64.30;;;;;;5045505;27;85575;-55
2022/12/07 04:56:05;;;;;;;66.18;50.00;;;12.70;64.50;;;;;;5040730;27;86858;-55
2022/12/07 04:58:31;;;;;;;66.00;50.30;;;12.70;64.40;;;;;;5045798;27;86227;-60
2022/12/07 05:00:56;;;;;;;65.25;49.78;;;12.60;65.10;;;;;;5032850;27;86034;-57
2022/12/07 05:03:22;;;;;;;64.97;50.28;;;12.70;64.30;;;;;;5027793;27;90006;-55
2022/12/07 05:05:47;;;;;;;65.15;50.10;;;12.60;64.30;;;;;;5039644;27;90440;-56
2022/12/07 05:08:13;;;;;;;68.32;49.88;;;12.60;64.50;;;;;;5045819;27;85841;-55
2022/12/07 05:10:39;;;;;;;68.40;50.53;;;12.70;64.60;;;;;;5029187;27;87820;-55
2022/12/07 05:13:04;;;;;;;68.72;50.88;;;12.70;64.50;;;;;;5046951;27;87648;-55
2022/12/07 05:15:30;;;;;;;66.88;50.15;;;12.70;64.70;;;;;;5042865;27;86794;-54
2022/12/07 05:17:56;;;;;;;66.45;50.38;;;12.70;64.80;;;;;;5036191;27;86652;-56
2022/12/07 05:20:21;;;;;;;65.38;50.58;;;12.70;64.80;;;;;;5045440;27;87019;-54
2022/12/07 05:22:47;;;;;;;66.57;50.55;;;12.70;64.90;;;;;;5044746;27;89935;-55
2022/12/07 05:25:13;;;;;;;66.10;49.97;;;12.60;65.00;;;;;;5047921;27;85953;-56
2022/12/07 05:27:38;;;;;;;68.35;50.65;;;12.60;65.00;;;;;;5045363;27;85478;-54
2022/12/07 05:30:05;;;;;;;68.38;50.75;;;12.70;65.00;;;;;;5040200;27;85425;-51
2022/12/07 05:32:31;;;;;;;66.68;50.38;;;12.70;65.00;;;;;;5041009;27;91248;-54
2022/12/07 05:34:56;;;;;;;67.07;50.80;;;12.60;65.00;;;;;;5052853;27;85471;-52
2022/12/07 05:37:22;;;;;;;66.05;49.70;;;12.60;65.00;;;;;;5043112;27;89005;-55
2022/12/07 05:39:48;;;;;;;67.05;50.60;;;12.60;65.10;;;;;;5042793;27;91428;-54
2022/12/07 05:42:13;;;;;;;65.82;50.53;;;12.60;65.10;;;;;;5045634;27;88106;-54
2022/12/07 05:44:40;;;;;;;66.47;50.67;;;12.60;65.10;;;;;;5045150;27;87758;-51
2022/12/07 05:47:06;;;;;;;68.55;50.83;;;12.60;65.10;;;;;;5046216;27;86978;-54
2022/12/07 05:49:32;;;;;;;66.43;51.17;;;12.60;65.10;;;;;;5051458;27;86898;-54
2022/12/07 05:51:57;;;;;;;67.82;50.38;;;12.60;65.10;;;;;;5042904;27;86278;-52
2022/12/07 05:54:23;;;;;;;65.60;50.10;;;12.60;65.30;;;;;;5042760;27;92535;-52
2022/12/07 05:56:49;;;;;;;65.60;50.15;;;12.60;65.40;;;;;;5047120;27;87716;-52
2022/12/07 05:59:24;;;;;;;66.35;50.33;;;12.60;65.20;;;;;;5051034;27;86407;-55
2022/12/07 06:01:58;;;;;;;68.88;51.00;;;12.60;65.20;;;;;;5043982;27;89876;-53
2022/12/07 06:04:26;;;;;;;67.22;51.03;;;12.50;65.30;;;;;;5049909;27;85575;-53
2022/12/07 06:06:52;;;;;;;70.88;49.67;;;12.60;65.30;;;;;;5041064;27;92749;-53
2022/12/07 06:09:19;;;;;;;67.82;50.28;;;12.60;65.30;;;;;;5039788;27;88251;-53
2022/12/07 06:14:29;;;;;;;68.78;50.30;;;12.60;65.60;;;;;;5039214;27;86380;-52
2022/12/07 06:16:55;;;;;;;70.28;50.50;;;12.60;66.40;;;;;;5038276;27;88661;-54
2022/12/07 06:19:21;;;;;;;66.35;50.13;;;12.60;66.20;;;;;;5046575;27;86795;-52
2022/12/07 06:21:47;;;;;;;70.80;50.50;;;12.60;66.60;;;;;;5046903;27;87267;-55
2022/12/07 06:24:15;;;;;;;69.97;50.65;;;12.60;66.80;;;;;;5041456;27;85195;-54
2022/12/07 06:26:41;;;;;;;67.55;50.75;;;12.60;66.80;;;;;;5046698;27;86375;-54
2022/12/07 06:29:07;;;;;;;67.25;50.83;;;12.70;66.70;;;;;;5044977;27;85421;-53
2022/12/07 06:31:33;;;;;;;69.75;50.92;;;12.70;66.60;;;;;;5050440;27;85937;-52
2022/12/07 06:34:03;;;;;;;79.18;50.95;;;12.70;66.40;;;;;;5050459;27;88370;-52
2022/12/07 06:36:29;;;;;;;73.03;50.90;;;12.70;66.50;;;;;;5036482;27;86490;-53
2022/12/07 06:38:56;;;;;;;70.57;50.75;;;12.70;67.40;;;;;;5036631;27;90397;-53
2022/12/07 06:41:22;;;;;;;71.43;51.08;;;12.60;66.40;;;;;;5036093;27;85651;-53
2022/12/07 06:43:48;;;;;;;68.82;50.83;;;12.60;66.30;;;;;;5045612;27;90931;-50
2022/12/07 06:46:14;;;;;;;71.72;51.35;;;12.60;66.60;;;;;;5046386;27;86101;-53
2022/12/07 06:48:41;;;;;;;71.88;51.08;;;12.60;66.60;;;;;;5042598;27;88995;-51
2022/12/07 06:51:07;;;;;;;66.38;50.67;;;12.60;66.30;;;;;;5039971;27;86562;-51
2022/12/07 06:53:33;;;;;;;66.53;51.08;;;12.60;66.10;;;;;;5046897;27;85210;-52
2022/12/07 06:55:59;;;;;;;69.50;51.58;;;12.60;65.90;;;;;;5042876;27;87548;-53
2022/12/07 06:58:25;;;;;;;70.82;50.75;;;12.60;65.90;;;;;;5035834;27;87479;-51
2022/12/07 07:00:51;;;;;;;67.63;50.80;;;12.60;65.90;;;;;;5030231;27;87694;-54
2022/12/07 07:03:17;;;;;;;68.88;50.42;;;12.50;65.90;;;;;;5026744;27;88191;-56
2022/12/07 07:05:43;;;;;;;67.72;50.08;;;12.50;65.80;;;;;;5047960;27;85407;-55
2022/12/07 07:08:09;;;;;;;68.18;51.47;;;12.60;65.90;;;;;;5044048;27;85754;-52
2022/12/07 07:10:35;;;;;;;65.43;50.75;;;12.60;65.80;;;;;;5041739;27;92404;-54
2022/12/07 07:13:01;;;;;;;66.63;50.83;;;12.60;65.70;;;;;;5046034;27;85828;-53
2022/12/07 07:15:27;;;;;;;67.78;50.35;;;12.50;65.70;;;;;;5041951;27;88635;-50
2022/12/07 07:17:53;;;;;;;66.50;50.40;;;12.50;65.80;;;;;;5047569;27;85823;-51
2022/12/07 07:20:19;;;;;;;68.15;50.30;;;12.50;65.70;;;;;;5042602;27;85398;-56
2022/12/07 07:22:44;;;;;;;66.57;50.05;;;12.50;65.70;;;;;;5039430;27;88348;-53
2022/12/07 07:25:10;;;;;;;66.82;50.10;;;12.50;65.70;;;;;;5038643;27;88193;-52
2022/12/07 07:27:35;;;;;;;66.45;50.30;;;12.50;65.60;;;;;;5050746;27;86182;-54
2022/12/07 07:30:01;;;;;;;69.50;51.08;;;12.50;65.60;;;;;;5043121;27;88406;-53
2022/12/07 07:32:27;;;;;;;68.65;50.40;;;12.50;65.40;;;;;;5012535;27;85175;-52
2022/12/07 07:34:53;;;;;;;66.25;49.97;;;12.50;65.60;;;;;;5038633;27;86316;-54
2022/12/07 07:37:19;;;;;;;67.97;50.72;;;12.50;65.60;;;;;;5028380;27;85216;-53
2022/12/07 07:39:44;;;;;;;68.40;51.38;;;12.40;65.60;;;;;;5035232;27;88844;-55
2022/12/07 07:42:10;;;;;;;65.38;50.35;;;12.40;65.60;;;;;;5051518;27;87168;-53
2022/12/07 07:44:35;;;;;;;66.65;50.45;;;12.50;65.50;;;;;;5051200;27;86312;-55
2022/12/07 07:47:01;;;;;;;69.25;50.60;;;12.40;65.50;;;;;;5044726;27;85921;-54
2022/12/07 07:49:27;;;;;;;66.32;50.38;;;12.50;65.50;;;;;;5034018;27;86169;-55
2022/12/07 07:51:53;;;;;;;65.80;50.25;;;12.50;65.50;;;;;;5036461;27;87604;-53
2022/12/07 07:54:18;;;;;;;67.50;50.70;;;12.40;65.40;;;;;;5050811;27;86101;-50
2022/12/07 07:56:44;;;;;;;68.22;50.70;;;12.40;65.40;;;;;;5036078;27;86644;-56
2022/12/07 07:59:10;;;;;;;67.13;50.78;;;12.40;65.50;;;;;;5031869;27;86279;-51
2022/12/07 08:01:35;;;;;;;66.85;50.22;;;12.40;65.40;;;;;;5048099;27;87285;-54
2022/12/07 08:04:01;;;;;;;67.30;50.60;;;12.40;65.30;;;;;;5050420;27;86657;-54
2022/12/07 08:06:27;;;;;;;65.68;50.47;;;12.40;65.30;;;;;;5038514;27;85645;-55
2022/12/07 08:08:53;;;;;;;67.47;50.88;;;12.40;65.20;;;;;;5044069;27;87465;-51
2022/12/07 08:11:18;;;;;;;68.03;50.95;;;12.40;65.20;;;;;;5046410;27;87492;-53
2022/12/07 08:13:47;;;;;;;66.88;50.55;;;12.40;65.40;;;;;;5044818;27;85274;-52
2022/12/07 08:16:14;;;;;;;65.18;50.55;;;12.40;65.30;;;;;;5033187;27;87310;-52
2022/12/07 08:18:41;;;;;;;66.85;50.30;;;12.40;65.30;;;;;;5047224;27;88177;-50
2022/12/07 08:21:11;;;;;;;66.50;50.67;;;12.40;65.30;;;;;;5041712;27;86285;-54
2022/12/07 08:23:37;;;;;;;66.20;50.22;;;12.40;65.30;;;;;;5042668;27;86857;-53
2022/12/07 08:26:05;;;;;;;66.88;50.38;;;12.40;65.30;;;;;;5041887;27;86749;-54
2022/12/07 08:28:31;;;;;;;67.78;50.45;;;12.40;65.30;;;;;;5039223;27;85492;-53
2022/12/07 08:31:18;;;;;;;66.82;50.30;;;12.40;65.20;;;;;;5036985;27;85816;-55
2022/12/07 08:33:47;;;;;;;66.43;50.00;;;12.40;65.10;;;;;;5036231;27;89979;-50
2022/12/07 08:36:13;;;;;;;65.47;50.30;;;12.40;65.30;;;;;;5021882;27;86031;-51
2022/12/07 08:38:40;;;;;;;66.38;50.25;;;12.40;65.00;;;;;;5055543;27;85530;-53
2022/12/07 08:41:06;;;;;;;67.40;50.20;;;12.40;65.00;;;;;;5040179;27;86716;-53
2022/12/07 08:43:32;;;;;;;66.22;50.30;;;12.50;64.90;;;;;;5038021;27;86090;-53
2022/12/07 08:46:13;;;;;;;67.43;50.80;;;12.50;64.80;;;;;;5042115;27;85886;-51
2022/12/07 08:48:56;;;;;;;67.35;50.33;;;12.50;64.90;;;;;;5044223;27;87548;-55
2022/12/07 08:51:22;;;;;;;66.07;50.13;;;12.50;64.80;;;;;;5045115;27;86550;-54
2022/12/07 08:53:50;;;;;;;65.35;49.88;;;12.50;64.70;;;;;;5050192;27;86822;-54
2022/12/07 08:56:16;;;;;;;65.82;50.47;;;12.50;64.60;;;;;;5038175;27;85534;-53
2022/12/07 08:58:42;;;;;;;66.72;49.92;;;12.50;64.60;;;;;;5042830;27;86320;-54
2022/12/07 09:01:08;;;;;;;66.03;50.13;;;12.50;64.50;;;;;;5043176;27;89292;-53
2022/12/07 09:03:34;;;;;;;68.00;50.22;;;12.50;64.50;;;;;;5048241;27;85463;-50
2022/12/07 09:06:00;;;;;;;66.63;50.50;;;12.50;64.60;;;;;;5041206;27;87054;-53
2022/12/07 09:08:32;;;;;;;65.28;49.90;;;12.50;64.50;;;;;;5036257;27;87245;-52
2022/12/07 09:10:59;;;;;;;65.32;49.92;;;12.60;64.40;;;;;;5036570;27;87770;-51
2022/12/07 09:13:24;;;;;;;67.60;50.30;;;12.50;64.40;;;;;;5046670;27;87019;-51
2022/12/07 09:15:50;;;;;;;66.78;50.55;;;12.50;64.50;;;;;;5026269;27;90470;-55
2022/12/07 09:18:15;;;;;;;67.90;50.90;;;12.50;64.50;;;;;;5044028;27;85426;-53
2022/12/07 09:20:41;;;;;;;65.85;50.42;;;12.50;64.50;;;;;;5048504;27;92127;-52
2022/12/07 09:23:07;;;;;;;67.75;50.17;;;12.50;64.50;;;;;;5042258;27;86522;-55
2022/12/07 09:25:34;;;;;;;65.35;49.53;;;12.50;64.60;;;;;;5037523;27;85201;-53
2022/12/07 09:27:59;;;;;;;65.28;50.05;;;12.60;64.60;;;;;;5042552;27;87938;-51
2022/12/07 09:30:26;;;;;;;65.53;49.83;;;12.60;64.50;;;;;;5047823;27;86254;-55
2022/12/07 09:32:56;;;;;;;65.15;50.00;;;12.60;64.40;;;;;;5044177;27;86103;-54
2022/12/07 09:35:23;;;;;;;66.10;50.40;;;12.60;64.50;;;;;;5050043;27;86245;-52
2022/12/07 09:37:48;;;;;;;69.72;50.05;;;12.60;64.40;;;;;;5043581;27;86917;-49
2022/12/07 09:40:17;;;;;;;66.93;49.38;;;12.60;64.40;;;;;;5006501;27;85957;-54
2022/12/07 09:42:48;;;;;;;68.60;50.65;;;12.60;64.30;;;;;;5033532;27;85567;-54
2022/12/07 09:45:18;;;;;;;66.00;49.47;;;12.60;64.20;;;;;;5039550;27;87005;-54
2022/12/07 09:47:45;;;;;;;65.47;49.63;;;12.60;64.20;;;;;;5050288;27;88163;-55
2022/12/07 09:50:24;;;;;;;65.65;49.70;;;12.70;64.20;;;;;;5043085;27;88754;-52
2022/12/07 09:52:51;;;;;;;68.03;49.42;;;12.70;64.20;;;;;;5042530;27;90614;-52
2022/12/07 09:55:27;;;;;;;65.20;49.92;;;12.70;64.20;;;;;;5042507;27;86637;-55
2022/12/07 09:57:53;;;;;;;69.13;50.50;;;12.70;64.10;;;;;;5045788;27;86799;-53
2022/12/07 10:00:21;;;;;;;71.28;50.17;;;12.80;63.90;;;;;;5037904;27;88439;-53
2022/12/07 10:02:53;;;;;;;67.70;49.65;;;12.80;64.60;;;;;;5024112;27;87535;-53
2022/12/07 10:05:22;;;;;;;;;;;12.80;63.80;;;;;;5040018;27;87736;-55
2022/12/07 10:07:47;;;;;;;64.72;49.63;;;12.90;64.40;;;;;;5046509;27;91808;-55
2022/12/07 10:10:22;;;;;;;65.85;49.58;;;12.90;63.50;;;;;;5047679;27;85393;-51
2022/12/07 10:13:03;;;;;;;66.40;49.25;;;12.80;63.50;;;;;;5041999;27;85478;-54
2022/12/07 10:15:58;;;;;;;66.22;49.60;;;12.80;63.90;;;;;;5044675;27;85894;-54
2022/12/07 10:18:28;;;;;;;65.38;49.60;;;12.80;63.80;;;;;;5036749;27;87407;-55
2022/12/07 10:21:01;;;;;;;65.97;49.35;;;12.80;63.70;;;;;;5044627;27;86149;-52
2022/12/07 10:23:27;;;;;;;65.20;49.63;;;12.80;63.90;;;;;;5042654;27;87586;-55
2022/12/07 10:25:54;;;;;;;65.10;49.67;;;12.80;64.00;;;;;;5038756;27;86137;-51
2022/12/07 10:28:21;;;;;;;66.38;49.22;;;12.80;64.00;;;;;;5036948;27;87757;-55
2022/12/07 10:31:03;;;;;;;66.88;49.15;;;12.70;64.10;;;;;;5039322;27;87450;-53
2022/12/07 10:33:59;;;;;;;64.70;49.42;;;12.70;64.20;;;;;;5042653;27;88455;-53
2022/12/07 10:36:45;;;;;;;66.70;50.08;;;12.70;64.20;;;;;;5040873;27;85423;-54
2022/12/07 10:39:18;;;;;;;64.38;48.97;;;12.70;64.30;;;;;;5037001;27;89362;-52
2022/12/07 10:41:57;;;;;;;64.95;49.10;;;12.80;64.30;;;;;;5039633;27;89787;-54
2022/12/07 10:44:29;;;;;;;65.90;49.60;;;12.80;64.10;;;;;;5043276;27;86046;-51
2022/12/07 10:47:15;;;;;;;67.15;49.63;;;12.80;64.10;;;;;;5047571;27;87387;-54
2022/12/07 10:50:22;;;;;;;65.35;49.65;;;12.80;64.00;;;;;;5053156;27;87248;-55
2022/12/07 10:53:09;;;;;;;64.45;49.10;;;12.80;64.90;;;;;;5045488;27;85661;-52
2022/12/07 10:55:57;;;;;;;66.03;49.28;;;12.80;64.10;;;;;;5045160;27;87860;-54
2022/12/07 10:58:40;;;;;;;67.07;49.65;;;12.80;64.00;;;;;;5046759;27;87572;-54
2022/12/07 11:01:27;;;;;;;64.32;48.88;;;12.80;64.00;;;;;;5033944;27;86569;-55
2022/12/07 11:04:11;;;;;;;66.65;49.67;;;12.80;64.10;;;;;;5048763;27;85792;-52
2022/12/07 11:06:51;;;;;;;66.60;49.92;;;12.80;64.00;;;;;;5047143;27;87857;-54
2022/12/07 11:09:38;;;;;;;66.22;49.85;;;12.80;63.90;;;;;;5041152;27;86948;-52
2022/12/07 11:12:36;;;;;;;66.45;49.88;;;12.80;64.00;;;;;;5021511;27;87103;-52
2022/12/07 11:15:04;;;;;;;68.05;49.88;;;12.80;64.00;;;;;;5028824;27;87866;-54
2022/12/07 11:17:44;;;;;;;67.03;49.33;;;12.80;64.00;;;;;;5035351;27;88890;-53
2022/12/07 11:20:20;;;;;;;69.28;49.20;;;12.80;64.10;;;;;;5034060;27;87446;-54
2022/12/07 11:23:00;;;;;;;67.85;49.72;;;12.80;64.10;;;;;;5036617;27;85459;-54
2022/12/07 11:25:38;;;;;;;67.00;49.20;;;12.80;64.10;;;;;;5037483;27;87077;-54
2022/12/07 11:28:16;;;;;;;64.93;49.08;;;12.80;64.30;;;;;;5054103;27;87923;-53
2022/12/07 11:30:44;;;;;;;67.85;49.25;;;12.80;64.40;;;;;;5046469;27;86894;-53
2022/12/07 11:33:34;;;;;;;64.70;48.90;;;12.80;64.40;;;;;;5032352;27;88264;-54
2022/12/07 11:36:27;;;;;;;67.72;49.33;;;12.80;64.40;;;;;;5038899;27;89734;-54
2022/12/07 11:38:57;;;;;;;68.70;49.83;;;12.80;64.20;;;;;;5037276;27;87630;-52
2022/12/07 11:41:28;;;;;;;67.45;49.22;;;12.90;64.00;;;;;;5039720;27;89335;-53
2022/12/07 11:44:07;;;;;;;65.38;48.97;;;12.90;63.90;;;;;;5027258;27;85703;-54
2022/12/07 11:46:59;;;;;;;67.45;49.35;;;13.00;63.90;;;;;;5044448;27;89570;-54
2022/12/07 11:50:27;;;;;;;65.63;48.72;;;13.00;63.90;;;;;;5040539;27;87934;-54
2022/12/07 11:53:02;;;;;;;68.32;49.30;;;13.00;63.70;;;;;;4942148;28;87230;-54
2022/12/07 11:56:06;;;;;;;65.45;48.92;;;13.00;63.60;;;;;;5036178;27;89023;-50
2022/12/07 11:58:47;;;;;;;64.70;48.95;;;13.00;63.60;;;;;;5018518;27;87804;-53
2022/12/07 12:01:33;;;;;;;64.97;48.85;;;13.00;63.60;;;;;;5038069;27;88673;-50
2022/12/07 12:04:08;;;;;;;64.55;49.13;;;13.00;63.60;;;;;;5040721;27;89744;-52
2022/12/07 12:06:37;;;;;;;67.10;49.10;;;13.10;63.70;;;;;;5038481;27;86248;-52
2022/12/07 12:09:20;;;;;;;66.00;49.17;;;13.00;63.60;;;;;;5050142;27;85550;-52
2022/12/07 12:11:58;;;;;;;64.25;49.08;;;13.10;63.50;;;;;;5052325;27;87593;-52
2022/12/07 12:14:42;;;;;;;65.28;49.05;;;13.10;63.40;;;;;;5039945;27;86310;-52
2022/12/07 12:17:28;;;;;;;68.18;49.95;;;13.10;63.50;;;;;;5034755;27;87170;-53
2022/12/07 12:20:15;;;;;;;68.05;49.40;;;13.10;63.50;;;;;;5033892;27;86476;-54
2022/12/07 12:22:46;;;;;;;65.60;49.17;;;13.10;63.40;;;;;;5042518;27;85513;-53
2022/12/07 12:25:24;;;;;;;67.03;49.25;;;13.10;63.20;;;;;;5049317;27;86229;-54
2022/12/07 12:27:52;;;;;;;66.75;49.80;;;13.10;63.40;;;;;;5043706;27;85595;-53
2022/12/07 12:31:09;;;;;;;66.07;49.38;;;13.10;63.20;;;;;;5047694;27;87384;-52
2022/12/07 12:33:37;;;;;;;68.60;49.35;;;13.10;63.40;;;;;;4980755;28;85607;-54
2022/12/07 12:36:17;;;;;;;67.55;49.35;;;13.10;63.40;;;;;;5044551;27;85438;-53
2022/12/07 12:38:51;;;;;;;67.55;49.35;;;13.10;63.50;;;;;;5048768;27;87914;-50
2022/12/07 12:41:35;;;;;;;65.88;49.10;;;13.10;63.30;;;;;;5032109;27;88351;-54
2022/12/07 12:44:01;;;;;;;66.40;49.53;;;13.10;63.40;;;;;;5046920;27;86518;-54
2022/12/07 12:46:29;;;;;;;69.68;49.78;;;13.10;63.30;;;;;;5040190;27;87057;-51
2022/12/07 12:49:38;;;;;;;66.82;49.50;;;13.20;63.30;;;;;;5047643;27;85465;-53
2022/12/07 12:52:40;;;;;;;70.68;49.72;;;13.20;63.20;;;;;;4971762;28;91059;-54